Minot International Airport Minot US
ICAO: KMOT
IATA: MOT
Category: Medium
Scheduled Services: Yes

Elevation: 1716 ft
TransAlt. 18000 ft.

Airport Communications:
APP:119.6
CTAF:118.2
DEP:119.6
GND:121.9
GRAND FORKS RDO:122.2
MAGIC CITY TWR:118.2
UNICOM:122.95

KMOT Zoom In..

If you have problems with the map follow the link
https://www.worldairports.se/pages/airport.php?
ICAO=KMOT

Runways:

(A) RW 08 length 6351 ft width 100 ft
---- / hdg 80

(B) RW 13 length 7700 ft width 150 ft
---- / hdg 128

(C) RW 26 length 6351 ft width 100 ft
---- / hdg 260

(D) RW 31 length 7700 ft width 150 ft
ILS 111.90 / hdg 308

Location; KMOT
Day. 16 / Time. 00.54 Zulu
* Altimeter: 29.89
* Temperature: -07° c. -19.4°f.
* Wind from: 290° Speed 16 kn with Gusts up to 23 kn.
Dewpoint: -11° c.
Visibility: 9 Statute Miles.
Clouds: Overcast 2400 ft.
Conditions: Light Snow.

KMOT 160054Z 29016G23KT 9SM -SN OVC024 M07/M11 A2989 RMK AO2 SNB42 SLP153 P0000 T10671106


Wind From 290°
Speed 16 kn.

 
 
jpsmedia worldairports.se 2019   terms of use